createdAt,value
2019-04-14T04:00:18.202Z,2.08
2019-04-14T04:02:44.502Z,2.07
2019-04-14T04:05:10.730Z,2.06
2019-04-14T04:07:36.545Z,2.03
2019-04-14T04:10:05.602Z,2.07
2019-04-14T04:12:31.425Z,2.07
2019-04-14T04:14:57.496Z,2.03
2019-04-14T04:17:38.642Z,2.04
2019-04-14T04:20:06.784Z,1.99
2019-04-14T04:22:37.517Z,2.02
2019-04-14T04:25:11.661Z,2.01
2019-04-14T04:27:56.691Z,2.03
2019-04-14T04:30:36.458Z,1.98
2019-04-14T04:33:10.920Z,1.97
2019-04-14T04:35:41.505Z,1.94
2019-04-14T04:38:11.888Z,1.92
2019-04-14T04:40:37.661Z,1.87
2019-04-14T04:43:03.831Z,1.81
2019-04-14T04:45:30.015Z,1.76
2019-04-14T04:47:56.078Z,1.70
2019-04-14T04:50:21.760Z,1.65
2019-04-14T04:52:47.591Z,1.59
2019-04-14T04:55:13.429Z,1.52
2019-04-14T04:57:39.498Z,1.48
2019-04-14T05:00:05.472Z,1.46
2019-04-14T05:02:31.404Z,1.42
2019-04-14T05:04:57.111Z,1.37
2019-04-14T05:07:23.200Z,1.37
2019-04-14T05:09:51.348Z,1.31
2019-04-14T05:12:19.564Z,1.32
2019-04-14T05:14:50.117Z,1.35
2019-04-14T05:17:34.435Z,1.36
2019-04-14T05:20:00.797Z,1.33
2019-04-14T05:22:26.836Z,1.33
2019-04-14T05:24:52.873Z,1.36
2019-04-14T05:27:18.966Z,1.37
2019-04-14T05:29:45.104Z,1.45
2019-04-14T05:32:11.175Z,1.48
2019-04-14T05:34:37.194Z,1.55
2019-04-14T05:37:02.955Z,1.56
2019-04-14T05:39:28.737Z,1.64
2019-04-14T05:42:03.849Z,1.64
2019-04-14T05:44:23.072Z,1.72
2019-04-14T05:46:49.182Z,1.73
2019-04-14T05:49:28.626Z,1.75
2019-04-14T05:51:43.727Z,1.70
2019-04-14T05:54:10.000Z,1.65
2019-04-14T05:56:37.650Z,1.64
2019-04-14T05:59:04.375Z,1.61
2019-04-14T06:01:30.120Z,1.61
2019-04-14T06:03:56.134Z,1.59
2019-04-14T06:06:22.106Z,1.68
2019-04-14T06:08:47.801Z,1.53
2019-04-14T06:11:13.757Z,1.45
2019-04-14T06:13:39.528Z,1.45
2019-04-14T06:16:05.213Z,1.47
2019-04-14T06:18:30.995Z,1.45
2019-04-14T06:20:56.854Z,1.45
2019-04-14T06:23:22.574Z,1.44
2019-04-14T06:25:48.257Z,1.47
2019-04-14T06:28:13.995Z,1.48
2019-04-14T06:30:44.545Z,1.49
2019-04-14T06:33:12.201Z,1.53
2019-04-14T06:35:45.686Z,1.56
2019-04-14T06:38:13.353Z,1.66
2019-04-14T06:40:41.022Z,1.66
2019-04-14T06:43:06.794Z,1.73
2019-04-14T06:45:32.489Z,1.80
2019-04-14T06:47:58.198Z,1.82
2019-04-14T06:50:23.901Z,1.94
2019-04-14T06:52:49.711Z,1.98
2019-04-14T06:55:15.409Z,1.98
2019-04-14T06:57:41.123Z,1.99
2019-04-14T07:00:07.065Z,2.00
2019-04-14T07:02:32.788Z,2.11
2019-04-14T07:04:58.490Z,2.09
2019-04-14T07:07:24.200Z,2.13
2019-04-14T07:09:50.132Z,2.10
2019-04-14T07:12:16.253Z,2.26
2019-04-14T07:14:42.340Z,2.45
2019-04-14T07:17:08.093Z,2.48
2019-04-14T07:19:34.150Z,2.53
2019-04-14T07:22:00.108Z,2.65
2019-04-14T07:24:26.076Z,2.68
2019-04-14T07:26:51.781Z,2.74
2019-04-14T07:29:17.469Z,2.76
2019-04-14T07:31:47.646Z,2.81
2019-04-14T07:34:30.704Z,2.86
2019-04-14T07:37:03.932Z,2.87
2019-04-14T07:39:31.853Z,2.98
2019-04-14T07:42:11.700Z,3.20
2019-04-14T07:44:45.278Z,3.18
2019-04-14T07:47:15.502Z,3.37
2019-04-14T07:49:51.990Z,3.63
2019-04-14T07:52:25.689Z,3.95
2019-04-14T07:55:10.191Z,4.09
2019-04-14T07:57:38.141Z,4.37
2019-04-14T08:00:09.282Z,4.34
2019-04-14T08:02:36.954Z,4.33
2019-04-14T08:05:05.829Z,4.37
2019-04-14T08:07:31.586Z,4.41
2019-04-14T08:09:57.400Z,4.39
2019-04-14T08:12:23.102Z,4.32
2019-04-14T08:14:48.814Z,4.43
2019-04-14T08:17:14.504Z,4.15
2019-04-14T08:19:40.214Z,4.22
2019-04-14T08:22:06.144Z,4.27
2019-04-14T08:24:31.855Z,4.37
2019-04-14T08:26:57.642Z,4.22
2019-04-14T08:29:23.556Z,4.28
2019-04-14T08:31:49.281Z,4.31
2019-04-14T08:34:14.971Z,4.42
2019-04-14T08:36:40.690Z,4.50
2019-04-14T08:39:06.481Z,4.59
2019-04-14T08:41:34.611Z,4.66
2019-04-14T08:44:18.941Z,4.55
2019-04-14T08:47:01.234Z,4.61
2019-04-14T08:49:29.130Z,4.68
2019-04-14T08:52:02.859Z,4.60
2019-04-14T08:54:33.128Z,4.70
2019-04-14T08:57:15.725Z,4.52
2019-04-14T08:59:52.796Z,4.52
2019-04-14T09:02:32.151Z,4.57
2019-04-14T09:05:14.943Z,4.65
2019-04-14T09:07:48.838Z,4.56
2019-04-14T09:10:16.507Z,4.69
2019-04-14T09:12:53.021Z,4.61
2019-04-14T09:15:18.782Z,4.79
2019-04-14T09:17:44.473Z,4.98
2019-04-14T09:20:10.184Z,4.91
2019-04-14T09:22:35.880Z,4.82
2019-04-14T09:25:01.691Z,4.85
2019-04-14T09:27:27.449Z,4.85
2019-04-14T09:29:53.546Z,4.76
2019-04-14T09:32:19.421Z,4.65
2019-04-14T09:34:45.180Z,4.60
2019-04-14T09:37:12.189Z,4.57
2019-04-14T09:39:38.426Z,4.52
2019-04-14T09:42:04.127Z,4.50
2019-04-14T09:44:29.843Z,4.23
2019-04-14T09:46:55.866Z,4.34
2019-04-14T09:49:21.584Z,4.36
2019-04-14T09:51:47.269Z,4.31
2019-04-14T09:54:13.230Z,4.41
2019-04-14T09:56:38.917Z,4.51
2019-04-14T09:59:04.634Z,4.58
2019-04-14T10:01:30.322Z,4.54
2019-04-14T10:03:56.341Z,4.52
2019-04-14T10:06:22.033Z,4.45
2019-04-14T10:08:47.845Z,4.43
2019-04-14T10:11:13.539Z,4.46
2019-04-14T10:13:39.258Z,4.62
2019-04-14T10:16:04.956Z,4.75
2019-04-14T10:18:30.951Z,4.83
2019-04-14T10:20:56.644Z,4.93
2019-04-14T10:23:22.696Z,4.87
2019-04-14T10:25:48.381Z,4.79
2019-04-14T10:28:14.444Z,4.86
2019-04-14T10:30:40.212Z,4.91
2019-04-14T10:33:06.222Z,4.87
2019-04-14T10:35:31.909Z,4.82
2019-04-14T10:37:57.905Z,4.78
2019-04-14T10:40:23.825Z,4.78
2019-04-14T10:42:49.875Z,4.80
2019-04-14T10:45:18.236Z,4.80
2019-04-14T10:47:43.190Z,4.91
2019-04-14T10:50:08.955Z,5.00
2019-04-14T10:52:34.642Z,4.94
2019-04-14T10:55:00.363Z,4.99
2019-04-14T10:57:26.049Z,4.98
2019-04-14T10:59:51.766Z,4.93
2019-04-14T11:02:17.801Z,4.97
2019-04-14T11:04:43.520Z,4.98
2019-04-14T11:07:13.997Z,4.95
2019-04-14T11:09:39.771Z,5.00
2019-04-14T11:12:05.635Z,5.06
2019-04-14T11:14:31.333Z,5.22
2019-04-14T11:16:57.055Z,5.38
2019-04-14T11:19:23.041Z,5.43
2019-04-14T11:21:49.010Z,5.49
2019-04-14T11:24:14.995Z,5.60
2019-04-14T11:26:40.957Z,5.59
2019-04-14T11:29:06.677Z,5.72
2019-04-14T11:31:42.978Z,5.76
2019-04-14T11:34:10.648Z,5.94
2019-04-14T11:36:41.341Z,6.08
2019-04-14T11:39:09.015Z,6.24
2019-04-14T11:41:34.771Z,6.22
2019-04-14T11:44:00.578Z,6.37
2019-04-14T11:46:26.331Z,6.46
2019-04-14T11:48:52.101Z,6.39
2019-04-14T11:51:17.893Z,6.65
2019-04-14T11:53:43.594Z,6.65
2019-04-14T11:56:09.499Z,6.87
2019-04-14T11:58:35.665Z,6.86
2019-04-14T12:01:12.288Z,6.84
2019-04-14T12:03:39.945Z,6.92
2019-04-14T12:06:25.790Z,6.93
2019-04-14T12:09:08.549Z,6.99
2019-04-14T12:11:34.306Z,6.91
2019-04-14T12:14:00.096Z,6.68
2019-04-14T12:16:25.856Z,6.53
2019-04-14T12:18:51.623Z,6.30
2019-04-14T12:21:17.406Z,6.28
2019-04-14T12:23:43.416Z,6.03
2019-04-14T12:26:09.185Z,5.88
2019-04-14T12:28:36.016Z,5.85
2019-04-14T12:31:02.529Z,5.82
2019-04-14T12:33:28.297Z,5.69
2019-04-14T12:35:54.071Z,5.67
2019-04-14T12:38:19.835Z,5.66
2019-04-14T12:40:45.898Z,5.68
2019-04-14T12:43:25.380Z,5.71
2019-04-14T12:46:11.181Z,5.70
2019-04-14T12:48:41.951Z,5.62
2019-04-14T12:51:09.928Z,5.59
2019-04-14T12:53:35.700Z,5.55
2019-04-14T12:56:01.479Z,5.56
2019-04-14T12:58:29.155Z,5.56
2019-04-14T13:00:56.832Z,5.56
2019-04-14T13:03:23.524Z,5.59
2019-04-14T13:05:49.299Z,5.59
2019-04-14T13:08:15.299Z,5.63
2019-04-14T13:10:41.085Z,5.65
2019-04-14T13:13:07.114Z,5.72
2019-04-14T13:15:32.822Z,5.71
2019-04-14T13:17:58.534Z,5.77
2019-04-14T13:20:24.218Z,5.69
2019-04-14T13:22:50.288Z,5.71
2019-04-14T13:25:16.269Z,5.78
2019-04-14T13:27:42.234Z,5.83
2019-04-14T13:30:09.677Z,5.86
2019-04-14T13:32:36.458Z,5.88
2019-04-14T13:35:03.870Z,5.92
2019-04-14T13:37:29.885Z,5.89
2019-04-14T13:39:55.648Z,5.93
2019-04-14T13:42:21.418Z,5.91
2019-04-14T13:44:47.179Z,6.04
2019-04-14T13:47:13.031Z,6.09
2019-04-14T13:49:38.981Z,6.16
2019-04-14T13:52:04.783Z,6.22
2019-04-14T13:54:30.710Z,6.28
2019-04-14T13:56:56.430Z,6.26
2019-04-14T13:59:22.489Z,6.29
2019-04-14T14:01:48.197Z,6.30
2019-04-14T14:04:13.951Z,6.35
2019-04-14T14:06:40.054Z,6.40
2019-04-14T14:09:08.348Z,6.40
2019-04-14T14:11:48.131Z,6.31
2019-04-14T14:14:28.338Z,6.20
2019-04-14T14:17:01.570Z,6.18
2019-04-14T14:19:29.231Z,6.20
2019-04-14T14:22:05.965Z,6.23
2019-04-14T14:24:33.635Z,6.26
2019-04-14T14:27:04.252Z,6.19
2019-04-14T14:29:30.031Z,6.26
2019-04-14T14:31:56.806Z,6.37
2019-04-14T14:34:22.593Z,6.45
2019-04-14T14:36:48.350Z,6.44
2019-04-14T14:39:16.040Z,6.36
2019-04-14T14:41:41.794Z,6.40
2019-04-14T14:44:07.566Z,6.43
2019-04-14T14:46:51.715Z,6.47
2019-04-14T14:49:24.900Z,6.43
2019-04-14T14:52:04.403Z,6.39
2019-04-14T14:54:30.177Z,6.41
2019-04-14T14:56:55.966Z,6.49
2019-04-14T14:59:21.759Z,6.46
2019-04-14T15:01:47.440Z,6.46
2019-04-14T15:04:13.164Z,6.46
2019-04-14T15:06:39.249Z,6.56
2019-04-14T15:09:05.552Z,6.61
2019-04-14T15:11:31.262Z,6.62
2019-04-14T15:13:57.041Z,6.71
2019-04-14T15:16:22.808Z,6.66
2019-04-14T15:18:48.508Z,6.71
2019-04-14T15:21:14.235Z,6.73
2019-04-14T15:23:40.009Z,6.76
2019-04-14T15:26:06.111Z,6.76
2019-04-14T15:28:31.815Z,6.84
2019-04-14T15:30:57.534Z,6.88
2019-04-14T15:33:23.326Z,6.91
2019-04-14T15:35:49.393Z,6.76
2019-04-14T15:38:15.162Z,6.69
2019-04-14T15:40:41.234Z,6.76
2019-04-14T15:43:07.205Z,6.78
2019-04-14T15:45:33.183Z,6.79
2019-04-14T15:47:58.970Z,6.76
2019-04-14T15:50:24.747Z,6.78
2019-04-14T15:52:50.504Z,6.75
2019-04-14T15:55:17.489Z,6.60
2019-04-14T15:57:47.945Z,6.61
2019-04-14T16:00:29.457Z,6.60
2019-04-14T16:02:57.121Z,6.60
2019-04-14T16:05:24.798Z,6.54
2019-04-14T16:07:55.255Z,6.44
2019-04-14T16:10:23.220Z,6.43
2019-04-14T16:12:53.965Z,6.39
2019-04-14T16:15:38.531Z,6.44
2019-04-14T16:18:15.495Z,6.44
2019-04-14T16:20:43.177Z,6.57
2019-04-14T16:23:08.934Z,6.51
2019-04-14T16:25:42.477Z,6.53
2019-04-14T16:28:10.446Z,6.51
2019-04-14T16:30:50.193Z,6.51
2019-04-14T16:33:17.838Z,6.52
2019-04-14T16:35:44.904Z,6.48
2019-04-14T16:38:11.049Z,6.53
2019-04-14T16:40:37.013Z,6.56
2019-04-14T16:43:03.027Z,6.50
2019-04-14T16:45:28.813Z,6.44
2019-04-14T16:47:54.820Z,6.37
2019-04-14T16:50:20.510Z,6.28
2019-04-14T16:52:48.134Z,6.30
2019-04-14T16:55:21.581Z,6.21
2019-04-14T16:57:49.271Z,6.13
2019-04-14T17:00:16.939Z,6.08
2019-04-14T17:02:42.722Z,6.04
2019-04-14T17:05:08.491Z,6.02
2019-04-14T17:07:34.582Z,5.98
2019-04-14T17:10:00.275Z,5.99
2019-04-14T17:12:26.331Z,5.99
2019-04-14T17:14:56.615Z,5.95
2019-04-14T17:17:33.130Z,5.92
2019-04-14T17:20:03.680Z,5.91
2019-04-14T17:22:48.281Z,5.90
2019-04-14T17:25:25.086Z,5.84
2019-04-14T17:28:09.187Z,5.82
2019-04-14T17:30:46.241Z,5.81
2019-04-14T17:33:22.728Z,5.77
2019-04-14T17:36:05.517Z,5.75
2019-04-14T17:38:48.127Z,5.62
2019-04-14T17:41:27.668Z,5.52
2019-04-14T17:43:55.347Z,5.52
2019-04-14T17:46:28.817Z,5.54
2019-04-14T17:49:08.668Z,5.47
2019-04-14T17:51:42.119Z,5.45
2019-04-14T17:54:12.325Z,5.37
2019-04-14T17:56:45.820Z,5.36
2019-04-14T17:59:13.494Z,5.28
2019-04-14T18:01:56.511Z,5.22
2019-04-14T18:04:26.990Z,5.12
2019-04-14T18:07:12.534Z,5.07
2019-04-14T18:09:43.154Z,5.02
2019-04-14T18:12:11.086Z,5.01
2019-04-14T18:14:41.397Z,4.98
2019-04-14T18:17:14.654Z,4.94
2019-04-14T18:19:42.678Z,4.93
2019-04-14T18:22:08.699Z,4.95
2019-04-14T18:24:42.102Z,4.95
2019-04-14T18:27:02.168Z,4.91
2019-04-14T18:29:35.727Z,4.91
2019-04-14T18:32:21.617Z,4.81
2019-04-14T18:34:52.096Z,4.79
2019-04-14T18:37:28.578Z,4.73
2019-04-14T18:40:14.893Z,4.68
2019-04-14T18:42:42.555Z,4.62
2019-04-14T18:45:22.109Z,4.59
2019-04-14T18:47:50.043Z,4.59
2019-04-14T18:50:23.462Z,4.58
2019-04-14T18:52:59.954Z,4.50
2019-04-14T18:55:40.063Z,4.47
2019-04-14T18:58:19.817Z,4.44
2019-04-14T19:00:50.250Z,4.47
2019-04-14T19:03:16.026Z,4.52
2019-04-14T19:05:41.798Z,4.55
2019-04-14T19:08:07.481Z,4.58
2019-04-14T19:10:33.723Z,4.61
2019-04-14T19:13:09.988Z,4.53
2019-04-14T19:15:40.431Z,4.53
2019-04-14T19:18:17.603Z,4.49
2019-04-14T19:20:48.535Z,4.45
2019-04-14T19:23:14.565Z,4.44
2019-04-14T19:25:40.689Z,4.48
2019-04-14T19:28:06.394Z,4.44
2019-04-14T19:30:32.381Z,4.37
2019-04-14T19:32:58.349Z,4.36
2019-04-14T19:35:26.791Z,4.34
2019-04-14T19:37:52.136Z,4.32
2019-04-14T19:40:17.911Z,4.10
2019-04-14T19:42:44.545Z,4.28
2019-04-14T19:45:10.577Z,4.31
2019-04-14T19:47:36.282Z,4.29
2019-04-14T19:50:03.566Z,4.24
2019-04-14T19:52:29.328Z,4.21
2019-04-14T19:54:55.027Z,4.16
2019-04-14T19:57:20.734Z,4.15
2019-04-14T19:59:46.421Z,4.14
2019-04-14T20:03:53.466Z,4.15
2019-04-14T20:06:21.654Z,4.05
2019-04-14T20:08:49.823Z,4.09
2019-04-14T20:11:18.294Z,4.10
2019-04-14T20:13:47.033Z,4.13
2019-04-14T20:16:19.967Z,4.16
2019-04-14T20:19:10.481Z,4.17
2019-04-14T20:21:37.494Z,4.14
2019-04-14T20:24:10.144Z,4.17
2019-04-14T20:26:42.678Z,4.10
2019-04-14T20:29:12.503Z,4.07
2019-04-14T20:31:57.571Z,4.07
2019-04-14T20:34:25.747Z,4.11
2019-04-14T20:36:54.044Z,4.04
2019-04-14T20:39:23.094Z,4.02
2019-04-14T20:41:51.583Z,4.05
2019-04-14T20:44:19.757Z,4.09
2019-04-14T20:46:47.951Z,4.07
2019-04-14T20:49:16.118Z,4.07
2019-04-14T20:51:44.304Z,4.02
2019-04-14T20:54:12.473Z,3.94
2019-04-14T20:56:40.660Z,3.92
2019-04-14T20:59:08.831Z,3.91
2019-04-14T21:01:36.438Z,3.86
2019-04-14T21:04:06.557Z,3.85
2019-04-14T21:06:51.732Z,3.83
2019-04-14T21:09:21.849Z,3.82
2019-04-14T21:11:54.335Z,3.81
2019-04-14T21:14:40.929Z,3.86
2019-04-14T21:17:10.757Z,3.85
2019-04-14T21:19:40.869Z,3.86
2019-04-14T21:22:10.702Z,3.89
2019-04-14T21:24:57.014Z,3.92
2019-04-14T21:27:32.852Z,3.90
2019-04-14T21:30:14.932Z,3.88
2019-04-14T21:32:50.507Z,3.88
2019-04-14T21:35:29.205Z,3.86
2019-04-14T21:37:59.323Z,3.82
2019-04-14T21:40:45.358Z,3.80
2019-04-14T21:43:13.800Z,3.76
2019-04-14T21:45:41.967Z,3.73
2019-04-14T21:48:10.454Z,3.67
2019-04-14T21:50:38.794Z,3.62
2019-04-14T21:53:06.984Z,3.60
2019-04-14T21:55:35.210Z,3.52
2019-04-14T21:58:04.999Z,3.41
2019-04-14T22:01:05.287Z,3.32
2019-04-14T22:03:50.609Z,3.20
2019-04-14T22:06:20.418Z,3.16
2019-04-14T22:08:50.382Z,3.19
2019-04-14T22:11:26.073Z,3.19
2019-04-14T22:13:54.272Z,3.23
2019-04-14T22:16:22.442Z,3.25
2019-04-14T22:18:50.799Z,3.30
2019-04-14T22:21:18.979Z,3.32
2019-04-14T22:23:59.916Z,3.36
2019-04-14T22:26:26.032Z,3.38
2019-04-14T22:28:47.590Z,3.40
2019-04-14T22:31:16.083Z,3.44
2019-04-14T22:33:44.270Z,3.43
2019-04-14T22:36:12.445Z,3.42
2019-04-14T22:38:40.636Z,3.44
2019-04-14T22:41:08.809Z,3.46
2019-04-14T22:43:37.371Z,3.49
2019-04-14T22:46:05.541Z,3.52
2019-04-14T22:48:33.718Z,3.54
2019-04-14T22:51:01.906Z,3.54
2019-04-14T22:53:30.096Z,3.56
2019-04-14T22:55:58.291Z,3.58
2019-04-14T22:58:26.728Z,3.56
2019-04-14T23:00:56.566Z,3.59
2019-04-14T23:03:42.325Z,3.59
2019-04-14T23:06:15.086Z,3.56
2019-04-14T23:08:47.816Z,3.56
2019-04-14T23:11:33.063Z,3.57
2019-04-14T23:14:20.931Z,3.58
2019-04-14T23:17:07.508Z,3.58
2019-04-14T23:19:40.229Z,3.58
2019-04-14T23:22:12.722Z,3.59
2019-04-14T23:24:45.214Z,3.55
2019-04-14T23:27:13.723Z,3.52
2019-04-14T23:29:41.898Z,3.48
2019-04-14T23:32:10.150Z,3.45
2019-04-14T23:34:38.653Z,3.42
2019-04-14T23:37:06.840Z,3.39
2019-04-14T23:39:35.017Z,3.38
2019-04-14T23:42:03.211Z,3.37
2019-04-14T23:44:31.376Z,3.34
2019-04-14T23:46:59.563Z,3.31
2019-04-14T23:49:27.735Z,3.29
2019-04-14T23:51:55.916Z,3.26
2019-04-14T23:54:24.090Z,3.22
2019-04-14T23:57:04.821Z,3.22
2019-04-14T23:59:22.427Z,3.24
